Osceola, WI (54020)

7:17 PM CDT on July 30, 2015 (GMT -0500)
Hilltop Acres | | Change Station
CLOSE
Current Station
Personal Weather Station
Location: Osceola, WI
Elevation: 900 ft
Nearby Weather Stations

Elev 900 ft 45.34 °N, 92.67 °W | Updated 12 minutes ago

Scattered Clouds
Scattered Clouds
79.8 °F
Feels Like 81 °F
N
5.0
Wind Variable Wind from NNE
Gusts 13.0 mph

Today
High -- | Low -- °F
--% Chance of Precip.
Yesterday
High -- | Low -- °F
Precip. -- in
5:52 AM 8:41 PM
Full, 100% visible
Pressure 30.02 in
Visibility 10.0 miles
Clouds Scattered Clouds 200 ft
Scattered Clouds 7000 ft
Scattered Clouds 9000 ft
Heat Index 81 °F
Dew Point 60 °F
Humidity 51%
Rainfall 0.00 in
Snow Depth Not available.
UV 1 out of 12
Pollen 7.80 out of 12
Air Quality Not available.
Flu Activity Not available.
METAR KOEO 302355Z AUTO 27008KT 10SM SCT002 SCT070 SCT090 26/13 A3002 RMK AO2 T02590129 10280 20259

More Conditions Fewer Conditions

Pressure 30.02 in
Visibility 10.0 miles
Clouds Scattered Clouds 200 ft
Scattered Clouds 7000 ft
Scattered Clouds 9000 ft
Heat Index 81 °F
Dew Point 60 °F
Humidity 51%
Rainfall 0.00 in
Snow Depth Not available.
UV 1 out of 12
Pollen 7.80 out of 12
Air Quality Not available.
Flu Activity Not available.
METAR KOEO 302355Z AUTO 27008KT 10SM SCT002 SCT070 SCT090 26/13 A3002 RMK AO2 T02590129 10280 20259

More Conditions Fewer Conditions

10-Day Weather Forecast

×

Almanac

Astronomy

Jul. 30, 2015 Rise Set
Actual Time
Civil Twilight
Nautical Twilight
Astronomical Twilight
Moon
Length of Visible Light
Length of Day
Tomorrow will be .
, % of the Moon is Illuminated

Today's Extremes

State Highs State Lows

Community

WunderPhotos

Upload Photos

1,842,548 photos uploaded!

WunderBlogs® & News

Nearby

Air Quality

  Air Quality AQ Index Pollutant
Not available.

Snow Depth

Station Depth Elevation

Earthquake Activity

City Distance Mag. Time & Date
Minimum magnitude displayed is 2.5.

Coastal Water Temperatures

Place Temperature

Stations

Nearby Weather Stations

Station Location Temp. Windchill Dew Point Humidity Wind Precip. Elev Updated Type